sensor_id;sensor_type;location;lat;lon;timestamp;P1;durP1;ratioP1;P2;durP2;ratioP2
77457;SDS011;66541;49.346;8.648;2023-05-21T00:02:01;17.85;;;9.70;;
77457;SDS011;66541;49.346;8.648;2023-05-21T00:04:28;18.52;;;9.13;;
77457;SDS011;66541;49.346;8.648;2023-05-21T00:06:53;17.65;;;9.77;;
77457;SDS011;66541;49.346;8.648;2023-05-21T00:09:18;20.63;;;10.23;;
77457;SDS011;66541;49.346;8.648;2023-05-21T00:11:44;16.48;;;9.45;;
77457;SDS011;66541;49.346;8.648;2023-05-21T00:14:09;17.50;;;9.10;;
77457;SDS011;66541;49.346;8.648;2023-05-21T00:16:35;17.23;;;9.70;;
77457;SDS011;66541;49.346;8.648;2023-05-21T00:19:00;18.25;;;9.65;;
77457;SDS011;66541;49.346;8.648;2023-05-21T00:21:26;16.23;;;8.77;;
77457;SDS011;66541;49.346;8.648;2023-05-21T00:23:51;16.48;;;9.68;;
77457;SDS011;66541;49.346;8.648;2023-05-21T00:26:20;16.90;;;9.23;;
77457;SDS011;66541;49.346;8.648;2023-05-21T00:28:45;16.90;;;8.95;;
77457;SDS011;66541;49.346;8.648;2023-05-21T00:31:11;19.45;;;9.40;;
77457;SDS011;66541;49.346;8.648;2023-05-21T00:33:36;16.77;;;9.65;;
77457;SDS011;66541;49.346;8.648;2023-05-21T00:36:02;18.38;;;9.57;;
77457;SDS011;66541;49.346;8.648;2023-05-21T00:38:27;19.67;;;8.80;;
77457;SDS011;66541;49.346;8.648;2023-05-21T00:40:52;18.25;;;9.07;;
77457;SDS011;66541;49.346;8.648;2023-05-21T00:43:18;17.88;;;9.43;;
77457;SDS011;66541;49.346;8.648;2023-05-21T00:45:43;16.25;;;8.82;;
77457;SDS011;66541;49.346;8.648;2023-05-21T00:48:10;17.60;;;10.15;;
77457;SDS011;66541;49.346;8.648;2023-05-21T00:50:36;16.73;;;9.57;;
77457;SDS011;66541;49.346;8.648;2023-05-21T00:53:04;17.33;;;8.52;;
77457;SDS011;66541;49.346;8.648;2023-05-21T00:55:33;17.08;;;8.63;;
77457;SDS011;66541;49.346;8.648;2023-05-21T00:57:59;16.95;;;8.27;;
77457;SDS011;66541;49.346;8.648;2023-05-21T01:00:25;17.23;;;9.23;;
77457;SDS011;66541;49.346;8.648;2023-05-21T01:02:50;17.10;;;8.45;;
77457;SDS011;66541;49.346;8.648;2023-05-21T01:05:15;17.20;;;8.50;;
77457;SDS011;66541;49.346;8.648;2023-05-21T01:07:41;16.63;;;8.50;;
77457;SDS011;66541;49.346;8.648;2023-05-21T01:10:07;19.05;;;10.05;;
77457;SDS011;66541;49.346;8.648;2023-05-21T01:12:34;17.48;;;10.18;;
77457;SDS011;66541;49.346;8.648;2023-05-21T01:15:00;17.05;;;9.38;;
77457;SDS011;66541;49.346;8.648;2023-05-21T01:17:27;17.08;;;9.45;;
77457;SDS011;66541;49.346;8.648;2023-05-21T01:19:52;16.15;;;8.32;;
77457;SDS011;66541;49.346;8.648;2023-05-21T01:22:18;16.30;;;8.63;;
77457;SDS011;66541;49.346;8.648;2023-05-21T01:24:45;17.58;;;9.10;;
77457;SDS011;66541;49.346;8.648;2023-05-21T01:27:14;17.17;;;9.32;;
77457;SDS011;66541;49.346;8.648;2023-05-21T01:29:39;18.60;;;8.70;;
77457;SDS011;66541;49.346;8.648;2023-05-21T01:32:11;19.05;;;9.48;;
77457;SDS011;66541;49.346;8.648;2023-05-21T01:34:44;15.93;;;8.93;;
77457;SDS011;66541;49.346;8.648;2023-05-21T01:37:20;14.73;;;7.95;;
77457;SDS011;66541;49.346;8.648;2023-05-21T01:39:52;16.02;;;9.02;;
77457;SDS011;66541;49.346;8.648;2023-05-21T01:42:20;18.60;;;9.18;;
77457;SDS011;66541;49.346;8.648;2023-05-21T01:44:47;19.17;;;9.57;;
77457;SDS011;66541;49.346;8.648;2023-05-21T01:47:13;17.85;;;8.60;;
77457;SDS011;66541;49.346;8.648;2023-05-21T01:49:40;15.80;;;8.68;;
77457;SDS011;66541;49.346;8.648;2023-05-21T01:52:05;18.77;;;8.95;;
77457;SDS011;66541;49.346;8.648;2023-05-21T01:54:31;18.13;;;8.52;;
77457;SDS011;66541;49.346;8.648;2023-05-21T01:56:56;16.13;;;8.25;;
77457;SDS011;66541;49.346;8.648;2023-05-21T01:59:21;17.17;;;9.10;;
77457;SDS011;66541;49.346;8.648;2023-05-21T02:01:47;17.45;;;8.20;;
77457;SDS011;66541;49.346;8.648;2023-05-21T02:04:12;17.80;;;8.45;;
77457;SDS011;66541;49.346;8.648;2023-05-21T02:06:37;16.27;;;8.15;;
77457;SDS011;66541;49.346;8.648;2023-05-21T02:09:03;17.33;;;8.15;;
77457;SDS011;66541;49.346;8.648;2023-05-21T02:11:29;16.27;;;8.93;;
77457;SDS011;66541;49.346;8.648;2023-05-21T02:13:55;17.52;;;9.10;;
77457;SDS011;66541;49.346;8.648;2023-05-21T02:16:21;18.65;;;8.80;;
77457;SDS011;66541;49.346;8.648;2023-05-21T02:18:46;18.40;;;8.43;;
77457;SDS011;66541;49.346;8.648;2023-05-21T02:21:15;16.48;;;8.05;;
77457;SDS011;66541;49.346;8.648;2023-05-21T02:23:40;16.75;;;8.88;;
77457;SDS011;66541;49.346;8.648;2023-05-21T02:26:06;16.45;;;8.38;;
77457;SDS011;66541;49.346;8.648;2023-05-21T02:28:32;16.98;;;8.25;;
77457;SDS011;66541;49.346;8.648;2023-05-21T02:30:58;17.38;;;9.02;;
77457;SDS011;66541;49.346;8.648;2023-05-21T02:33:23;18.00;;;8.40;;
77457;SDS011;66541;49.346;8.648;2023-05-21T02:35:48;18.05;;;8.93;;
77457;SDS011;66541;49.346;8.648;2023-05-21T02:38:13;18.10;;;9.18;;
77457;SDS011;66541;49.346;8.648;2023-05-21T02:40:43;18.90;;;9.35;;
77457;SDS011;66541;49.346;8.648;2023-05-21T02:43:09;18.92;;;9.40;;
77457;SDS011;66541;49.346;8.648;2023-05-21T02:45:34;19.10;;;9.13;;
77457;SDS011;66541;49.346;8.648;2023-05-21T02:47:59;18.42;;;9.18;;
77457;SDS011;66541;49.346;8.648;2023-05-21T02:50:25;18.45;;;8.32;;
77457;SDS011;66541;49.346;8.648;2023-05-21T02:52:50;18.48;;;8.77;;
77457;SDS011;66541;49.346;8.648;2023-05-21T02:55:16;17.02;;;8.40;;
77457;SDS011;66541;49.346;8.648;2023-05-21T02:57:41;17.63;;;8.40;;
77457;SDS011;66541;49.346;8.648;2023-05-21T03:00:07;19.42;;;9.63;;
77457;SDS011;66541;49.346;8.648;2023-05-21T03:02:33;17.95;;;8.90;;
77457;SDS011;66541;49.346;8.648;2023-05-21T03:04:59;16.65;;;8.55;;
77457;SDS011;66541;49.346;8.648;2023-05-21T03:07:24;18.73;;;8.75;;
77457;SDS011;66541;49.346;8.648;2023-05-21T03:09:50;18.17;;;9.48;;
77457;SDS011;66541;49.346;8.648;2023-05-21T03:12:15;19.33;;;9.88;;
77457;SDS011;66541;49.346;8.648;2023-05-21T03:14:40;16.65;;;8.32;;
77457;SDS011;66541;49.346;8.648;2023-05-21T03:17:10;16.15;;;8.15;;
77457;SDS011;66541;49.346;8.648;2023-05-21T03:19:37;18.75;;;9.15;;
77457;SDS011;66541;49.346;8.648;2023-05-21T03:22:05;17.85;;;9.38;;
77457;SDS011;66541;49.346;8.648;2023-05-21T03:24:31;18.20;;;9.48;;
77457;SDS011;66541;49.346;8.648;2023-05-21T03:26:57;16.50;;;8.68;;
77457;SDS011;66541;49.346;8.648;2023-05-21T03:29:25;19.30;;;9.48;;
77457;SDS011;66541;49.346;8.648;2023-05-21T03:31:51;17.80;;;8.88;;
77457;SDS011;66541;49.346;8.648;2023-05-21T03:34:17;18.73;;;9.18;;
77457;SDS011;66541;49.346;8.648;2023-05-21T03:36:44;17.35;;;9.20;;
77457;SDS011;66541;49.346;8.648;2023-05-21T03:39:10;19.08;;;9.20;;
77457;SDS011;66541;49.346;8.648;2023-05-21T03:41:35;16.75;;;8.35;;
77457;SDS011;66541;49.346;8.648;2023-05-21T03:44:00;18.40;;;9.02;;
77457;SDS011;66541;49.346;8.648;2023-05-21T03:46:25;17.95;;;8.73;;
77457;SDS011;66541;49.346;8.648;2023-05-21T03:48:52;15.63;;;8.30;;
77457;SDS011;66541;49.346;8.648;2023-05-21T03:51:17;16.88;;;8.00;;
77457;SDS011;66541;49.346;8.648;2023-05-21T03:53:44;20.52;;;9.48;;
77457;SDS011;66541;49.346;8.648;2023-05-21T03:56:09;18.52;;;9.48;;
77457;SDS011;66541;49.346;8.648;2023-05-21T03:58:34;17.40;;;9.23;;
77457;SDS011;66541;49.346;8.648;2023-05-21T04:01:00;19.90;;;9.52;;
77457;SDS011;66541;49.346;8.648;2023-05-21T04:03:26;16.25;;;8.40;;
77457;SDS011;66541;49.346;8.648;2023-05-21T04:05:55;19.85;;;10.07;;
77457;SDS011;66541;49.346;8.648;2023-05-21T04:08:20;18.88;;;10.10;;
77457;SDS011;66541;49.346;8.648;2023-05-21T04:10:46;18.17;;;9.35;;
77457;SDS011;66541;49.346;8.648;2023-05-21T04:13:11;18.17;;;8.70;;
77457;SDS011;66541;49.346;8.648;2023-05-21T04:15:36;17.58;;;9.10;;
77457;SDS011;66541;49.346;8.648;2023-05-21T04:18:02;16.45;;;8.65;;
77457;SDS011;66541;49.346;8.648;2023-05-21T04:20:28;17.30;;;8.63;;
77457;SDS011;66541;49.346;8.648;2023-05-21T04:22:53;20.98;;;10.23;;
77457;SDS011;66541;49.346;8.648;2023-05-21T04:25:19;15.65;;;8.45;;
77457;SDS011;66541;49.346;8.648;2023-05-21T04:27:45;16.40;;;9.05;;
77457;SDS011;66541;49.346;8.648;2023-05-21T04:30:11;20.10;;;9.48;;
77457;SDS011;66541;49.346;8.648;2023-05-21T04:32:37;17.00;;;8.82;;
77457;SDS011;66541;49.346;8.648;2023-05-21T04:35:03;15.50;;;8.07;;
77457;SDS011;66541;49.346;8.648;2023-05-21T04:37:28;17.08;;;8.50;;
77457;SDS011;66541;49.346;8.648;2023-05-21T04:39:55;17.70;;;8.63;;
77457;SDS011;66541;49.346;8.648;2023-05-21T04:42:21;17.63;;;9.05;;
77457;SDS011;66541;49.346;8.648;2023-05-21T04:44:50;16.90;;;8.35;;
77457;SDS011;66541;49.346;8.648;2023-05-21T04:47:15;17.05;;;8.43;;
77457;SDS011;66541;49.346;8.648;2023-05-21T04:49:42;17.52;;;8.63;;
77457;SDS011;66541;49.346;8.648;2023-05-21T04:52:08;17.85;;;8.45;;
77457;SDS011;66541;49.346;8.648;2023-05-21T04:54:33;19.00;;;8.65;;
77457;SDS011;66541;49.346;8.648;2023-05-21T04:57:00;17.15;;;8.82;;
77457;SDS011;66541;49.346;8.648;2023-05-21T04:59:26;18.27;;;9.07;;
77457;SDS011;66541;49.346;8.648;2023-05-21T05:01:52;18.27;;;8.98;;
77457;SDS011;66541;49.346;8.648;2023-05-21T05:04:17;17.17;;;9.15;;
77457;SDS011;66541;49.346;8.648;2023-05-21T05:06:42;17.45;;;9.35;;
77457;SDS011;66541;49.346;8.648;2023-05-21T05:09:08;19.05;;;8.13;;
77457;SDS011;66541;49.346;8.648;2023-05-21T05:11:33;15.98;;;8.13;;
77457;SDS011;66541;49.346;8.648;2023-05-21T05:13:58;17.63;;;8.40;;
77457;SDS011;66541;49.346;8.648;2023-05-21T05:16:24;17.23;;;8.38;;
77457;SDS011;66541;49.346;8.648;2023-05-21T05:18:50;15.43;;;8.18;;
77457;SDS011;66541;49.346;8.648;2023-05-21T05:21:16;15.68;;;8.00;;
77457;SDS011;66541;49.346;8.648;2023-05-21T05:23:41;14.60;;;8.38;;
77457;SDS011;66541;49.346;8.648;2023-05-21T05:26:07;18.08;;;8.55;;
77457;SDS011;66541;49.346;8.648;2023-05-21T05:28:32;17.67;;;8.93;;
77457;SDS011;66541;49.346;8.648;2023-05-21T05:30:57;16.15;;;8.52;;
77457;SDS011;66541;49.346;8.648;2023-05-21T05:33:22;16.42;;;8.32;;
77457;SDS011;66541;49.346;8.648;2023-05-21T05:35:48;18.02;;;8.32;;
77457;SDS011;66541;49.346;8.648;2023-05-21T05:38:13;17.00;;;8.32;;
77457;SDS011;66541;49.346;8.648;2023-05-21T05:40:38;15.57;;;7.70;;
77457;SDS011;66541;49.346;8.648;2023-05-21T05:43:04;17.60;;;9.10;;
77457;SDS011;66541;49.346;8.648;2023-05-21T05:45:29;17.27;;;8.57;;
77457;SDS011;66541;49.346;8.648;2023-05-21T05:47:54;17.67;;;8.50;;
77457;SDS011;66541;49.346;8.648;2023-05-21T05:50:20;18.05;;;8.65;;
77457;SDS011;66541;49.346;8.648;2023-05-21T05:52:45;17.25;;;7.95;;
77457;SDS011;66541;49.346;8.648;2023-05-21T05:55:10;19.23;;;8.43;;
77457;SDS011;66541;49.346;8.648;2023-05-21T05:57:36;17.17;;;8.55;;
77457;SDS011;66541;49.346;8.648;2023-05-21T06:00:02;15.93;;;8.05;;
77457;SDS011;66541;49.346;8.648;2023-05-21T06:02:28;14.38;;;7.50;;
77457;SDS011;66541;49.346;8.648;2023-05-21T06:04:53;19.17;;;8.90;;
77457;SDS011;66541;49.346;8.648;2023-05-21T06:07:19;16.52;;;9.02;;
77457;SDS011;66541;49.346;8.648;2023-05-21T06:09:44;17.83;;;8.98;;
77457;SDS011;66541;49.346;8.648;2023-05-21T06:12:10;17.63;;;8.63;;
77457;SDS011;66541;49.346;8.648;2023-05-21T06:14:35;17.35;;;9.18;;
77457;SDS011;66541;49.346;8.648;2023-05-21T06:17:03;19.70;;;9.55;;
77457;SDS011;66541;49.346;8.648;2023-05-21T06:19:28;18.67;;;8.63;;
77457;SDS011;66541;49.346;8.648;2023-05-21T06:21:54;16.85;;;8.52;;
77457;SDS011;66541;49.346;8.648;2023-05-21T06:24:19;16.15;;;8.88;;
77457;SDS011;66541;49.346;8.648;2023-05-21T06:26:44;16.80;;;8.30;;
77457;SDS011;66541;49.346;8.648;2023-05-21T06:29:10;17.30;;;9.13;;
77457;SDS011;66541;49.346;8.648;2023-05-21T06:31:35;16.90;;;8.20;;
77457;SDS011;66541;49.346;8.648;2023-05-21T06:34:01;17.73;;;8.77;;
77457;SDS011;66541;49.346;8.648;2023-05-21T06:36:26;16.23;;;8.32;;
77457;SDS011;66541;49.346;8.648;2023-05-21T06:38:56;17.40;;;8.60;;
77457;SDS011;66541;49.346;8.648;2023-05-21T06:41:22;19.45;;;8.90;;
77457;SDS011;66541;49.346;8.648;2023-05-21T06:43:47;17.23;;;9.18;;
77457;SDS011;66541;49.346;8.648;2023-05-21T06:46:13;18.40;;;9.13;;
77457;SDS011;66541;49.346;8.648;2023-05-21T06:48:38;16.13;;;8.77;;
77457;SDS011;66541;49.346;8.648;2023-05-21T06:51:03;18.05;;;8.25;;
77457;SDS011;66541;49.346;8.648;2023-05-21T06:53:29;15.70;;;8.25;;
77457;SDS011;66541;49.346;8.648;2023-05-21T06:55:54;17.67;;;9.05;;
77457;SDS011;66541;49.346;8.648;2023-05-21T06:58:20;18.10;;;9.55;;
77457;SDS011;66541;49.346;8.648;2023-05-21T07:00:46;16.42;;;8.55;;
77457;SDS011;66541;49.346;8.648;2023-05-21T07:03:12;15.77;;;7.97;;
77457;SDS011;66541;49.346;8.648;2023-05-21T07:05:37;20.35;;;9.70;;
77457;SDS011;66541;49.346;8.648;2023-05-21T07:08:02;17.77;;;9.27;;
77457;SDS011;66541;49.346;8.648;2023-05-21T07:10:28;16.50;;;8.32;;
77457;SDS011;66541;49.346;8.648;2023-05-21T07:12:53;16.55;;;8.05;;
77457;SDS011;66541;49.346;8.648;2023-05-21T07:15:18;15.35;;;8.52;;
77457;SDS011;66541;49.346;8.648;2023-05-21T07:17:43;16.48;;;8.43;;
77457;SDS011;66541;49.346;8.648;2023-05-21T07:20:09;16.77;;;8.40;;
77457;SDS011;66541;49.346;8.648;2023-05-21T07:22:37;16.00;;;8.15;;
77457;SDS011;66541;49.346;8.648;2023-05-21T07:25:02;14.10;;;7.82;;
77457;SDS011;66541;49.346;8.648;2023-05-21T07:27:28;16.77;;;8.20;;
77457;SDS011;66541;49.346;8.648;2023-05-21T07:29:53;15.77;;;7.63;;
77457;SDS011;66541;49.346;8.648;2023-05-21T07:32:19;15.23;;;8.40;;
77457;SDS011;66541;49.346;8.648;2023-05-21T07:34:44;18.15;;;9.00;;
77457;SDS011;66541;49.346;8.648;2023-05-21T07:37:09;16.60;;;8.27;;
77457;SDS011;66541;49.346;8.648;2023-05-21T07:39:35;15.57;;;8.07;;
77457;SDS011;66541;49.346;8.648;2023-05-21T07:42:01;16.70;;;7.70;;
77457;SDS011;66541;49.346;8.648;2023-05-21T07:44:27;15.45;;;7.45;;
77457;SDS011;66541;49.346;8.648;2023-05-21T07:46:52;16.80;;;8.10;;
77457;SDS011;66541;49.346;8.648;2023-05-21T07:49:17;16.35;;;8.48;;
77457;SDS011;66541;49.346;8.648;2023-05-21T07:51:42;13.13;;;7.18;;
77457;SDS011;66541;49.346;8.648;2023-05-21T07:54:08;15.35;;;8.48;;
77457;SDS011;66541;49.346;8.648;2023-05-21T07:56:34;15.30;;;8.52;;
77457;SDS011;66541;49.346;8.648;2023-05-21T07:58:59;16.25;;;8.07;;
77457;SDS011;66541;49.346;8.648;2023-05-21T08:01:26;14.70;;;8.15;;
77457;SDS011;66541;49.346;8.648;2023-05-21T08:03:53;14.93;;;7.57;;
77457;SDS011;66541;49.346;8.648;2023-05-21T08:06:18;15.27;;;7.75;;
77457;SDS011;66541;49.346;8.648;2023-05-21T08:08:44;14.10;;;7.75;;
77457;SDS011;66541;49.346;8.648;2023-05-21T08:11:09;16.20;;;8.05;;
77457;SDS011;66541;49.346;8.648;2023-05-21T08:13:35;14.20;;;7.75;;
77457;SDS011;66541;49.346;8.648;2023-05-21T08:16:00;16.25;;;8.25;;
77457;SDS011;66541;49.346;8.648;2023-05-21T08:18:25;14.20;;;7.18;;
77457;SDS011;66541;49.346;8.648;2023-05-21T08:20:51;13.27;;;6.80;;
77457;SDS011;66541;49.346;8.648;2023-05-21T08:23:16;14.10;;;7.50;;
77457;SDS011;66541;49.346;8.648;2023-05-21T08:25:41;14.23;;;7.15;;
77457;SDS011;66541;49.346;8.648;2023-05-21T08:28:07;15.40;;;7.15;;
77457;SDS011;66541;49.346;8.648;2023-05-21T08:30:32;13.57;;;7.30;;
77457;SDS011;66541;49.346;8.648;2023-05-21T08:32:57;12.60;;;6.90;;
77457;SDS011;66541;49.346;8.648;2023-05-21T08:35:23;12.68;;;7.35;;
77457;SDS011;66541;49.346;8.648;2023-05-21T08:37:48;13.15;;;7.43;;
77457;SDS011;66541;49.346;8.648;2023-05-21T08:40:14;13.57;;;7.15;;
77457;SDS011;66541;49.346;8.648;2023-05-21T08:45:11;14.45;;;7.00;;
77457;SDS011;66541;49.346;8.648;2023-05-21T08:47:39;13.55;;;7.30;;
77457;SDS011;66541;49.346;8.648;2023-05-21T08:50:07;13.65;;;7.90;;
77457;SDS011;66541;49.346;8.648;2023-05-21T08:52:42;13.88;;;8.20;;
77457;SDS011;66541;49.346;8.648;2023-05-21T08:55:07;12.48;;;7.07;;
77457;SDS011;66541;49.346;8.648;2023-05-21T08:57:33;12.55;;;6.70;;
77457;SDS011;66541;49.346;8.648;2023-05-21T08:59:59;15.18;;;7.50;;
77457;SDS011;66541;49.346;8.648;2023-05-21T09:02:25;13.57;;;7.78;;
77457;SDS011;66541;49.346;8.648;2023-05-21T09:04:54;13.23;;;6.65;;
77457;SDS011;66541;49.346;8.648;2023-05-21T09:07:23;12.95;;;7.05;;
77457;SDS011;66541;49.346;8.648;2023-05-21T09:09:54;14.48;;;6.85;;
77457;SDS011;66541;49.346;8.648;2023-05-21T09:12:21;14.55;;;6.78;;
77457;SDS011;66541;49.346;8.648;2023-05-21T09:14:50;14.27;;;7.90;;
77457;SDS011;66541;49.346;8.648;2023-05-21T09:17:15;12.45;;;6.90;;
77457;SDS011;66541;49.346;8.648;2023-05-21T09:22:44;13.00;;;7.32;;
77457;SDS011;66541;49.346;8.648;2023-05-21T09:25:11;12.88;;;7.03;;
77457;SDS011;66541;49.346;8.648;2023-05-21T09:27:37;15.55;;;7.03;;
77457;SDS011;66541;49.346;8.648;2023-05-21T09:30:03;14.00;;;7.93;;
77457;SDS011;66541;49.346;8.648;2023-05-21T09:32:30;13.23;;;7.43;;
77457;SDS011;66541;49.346;8.648;2023-05-21T09:34:56;14.40;;;7.00;;
77457;SDS011;66541;49.346;8.648;2023-05-21T09:37:21;12.30;;;7.28;;
77457;SDS011;66541;49.346;8.648;2023-05-21T09:39:47;12.73;;;7.40;;
77457;SDS011;66541;49.346;8.648;2023-05-21T09:42:12;11.68;;;6.63;;
77457;SDS011;66541;49.346;8.648;2023-05-21T09:44:38;13.80;;;7.55;;
77457;SDS011;66541;49.346;8.648;2023-05-21T09:47:07;13.27;;;7.63;;
77457;SDS011;66541;49.346;8.648;2023-05-21T09:49:33;12.80;;;7.18;;
77457;SDS011;66541;49.346;8.648;2023-05-21T09:52:01;12.45;;;7.00;;
77457;SDS011;66541;49.346;8.648;2023-05-21T09:54:30;14.30;;;7.53;;
77457;SDS011;66541;49.346;8.648;2023-05-21T09:56:56;14.55;;;8.15;;
77457;SDS011;66541;49.346;8.648;2023-05-21T09:59:33;12.07;;;6.25;;
77457;SDS011;66541;49.346;8.648;2023-05-21T10:01:59;12.52;;;6.55;;
77457;SDS011;66541;49.346;8.648;2023-05-21T10:04:26;13.13;;;7.47;;
77457;SDS011;66541;49.346;8.648;2023-05-21T10:06:51;14.10;;;7.72;;
77457;SDS011;66541;49.346;8.648;2023-05-21T10:09:17;14.10;;;7.50;;
77457;SDS011;66541;49.346;8.648;2023-05-21T10:11:43;12.60;;;6.93;;
77457;SDS011;66541;49.346;8.648;2023-05-21T10:14:30;13.82;;;7.55;;
77457;SDS011;66541;49.346;8.648;2023-05-21T10:16:54;13.63;;;7.55;;
77457;SDS011;66541;49.346;8.648;2023-05-21T10:19:20;13.23;;;7.18;;
77457;SDS011;66541;49.346;8.648;2023-05-21T10:21:46;11.57;;;6.45;;
77457;SDS011;66541;49.346;8.648;2023-05-21T10:24:11;12.75;;;7.40;;
77457;SDS011;66541;49.346;8.648;2023-05-21T10:26:37;12.70;;;7.20;;
77457;SDS011;66541;49.346;8.648;2023-05-21T10:29:03;13.60;;;7.68;;
77457;SDS011;66541;49.346;8.648;2023-05-21T10:31:29;12.75;;;7.32;;
77457;SDS011;66541;49.346;8.648;2023-05-21T10:33:56;12.23;;;7.30;;
77457;SDS011;66541;49.346;8.648;2023-05-21T10:36:25;13.35;;;8.10;;
77457;SDS011;66541;49.346;8.648;2023-05-21T10:38:55;11.80;;;6.85;;
77457;SDS011;66541;49.346;8.648;2023-05-21T10:41:21;13.98;;;7.57;;
77457;SDS011;66541;49.346;8.648;2023-05-21T10:43:48;13.63;;;7.45;;
77457;SDS011;66541;49.346;8.648;2023-05-21T10:46:33;13.90;;;7.43;;
77457;SDS011;66541;49.346;8.648;2023-05-21T10:49:17;13.77;;;7.95;;
77457;SDS011;66541;49.346;8.648;2023-05-21T10:54:37;14.43;;;7.03;;
77457;SDS011;66541;49.346;8.648;2023-05-21T11:00:09;13.63;;;8.00;;
77457;SDS011;66541;49.346;8.648;2023-05-21T11:02:36;12.15;;;7.43;;
77457;SDS011;66541;49.346;8.648;2023-05-21T11:05:02;13.57;;;8.05;;
77457;SDS011;66541;49.346;8.648;2023-05-21T11:13:11;13.35;;;7.00;;
77457;SDS011;66541;49.346;8.648;2023-05-21T11:20:54;12.83;;;8.00;;
77457;SDS011;66541;49.346;8.648;2023-05-21T11:23:47;12.23;;;7.25;;
77457;SDS011;66541;49.346;8.648;2023-05-21T11:26:28;13.80;;;7.05;;
77457;SDS011;66541;49.346;8.648;2023-05-21T11:31:46;12.07;;;8.00;;
77457;SDS011;66541;49.346;8.648;2023-05-21T11:34:23;13.07;;;8.35;;
77457;SDS011;66541;49.346;8.648;2023-05-21T11:39:40;11.98;;;7.60;;
77457;SDS011;66541;49.346;8.648;2023-05-21T11:42:06;12.13;;;6.97;;
77457;SDS011;66541;49.346;8.648;2023-05-21T11:44:38;14.02;;;7.00;;
77457;SDS011;66541;49.346;8.648;2023-05-21T11:47:04;12.10;;;7.40;;
77457;SDS011;66541;49.346;8.648;2023-05-21T11:49:31;12.13;;;8.40;;
77457;SDS011;66541;49.346;8.648;2023-05-21T11:51:57;11.55;;;6.72;;
77457;SDS011;66541;49.346;8.648;2023-05-21T11:54:26;12.48;;;7.13;;
77457;SDS011;66541;49.346;8.648;2023-05-21T11:56:55;13.32;;;7.38;;
77457;SDS011;66541;49.346;8.648;2023-05-21T11:59:20;13.52;;;7.50;;
77457;SDS011;66541;49.346;8.648;2023-05-21T12:01:45;12.23;;;7.03;;
77457;SDS011;66541;49.346;8.648;2023-05-21T12:04:11;12.35;;;7.72;;
77457;SDS011;66541;49.346;8.648;2023-05-21T12:06:37;11.88;;;7.40;;
77457;SDS011;66541;49.346;8.648;2023-05-21T12:09:06;13.85;;;7.80;;
77457;SDS011;66541;49.346;8.648;2023-05-21T12:11:31;12.00;;;7.13;;
77457;SDS011;66541;49.346;8.648;2023-05-21T12:13:57;12.00;;;7.40;;
77457;SDS011;66541;49.346;8.648;2023-05-21T12:16:22;11.90;;;7.10;;
77457;SDS011;66541;49.346;8.648;2023-05-21T12:18:47;12.85;;;8.10;;
77457;SDS011;66541;49.346;8.648;2023-05-21T12:21:12;12.18;;;7.00;;
77457;SDS011;66541;49.346;8.648;2023-05-21T12:23:38;10.77;;;5.50;;
77457;SDS011;66541;49.346;8.648;2023-05-21T12:26:03;13.70;;;6.72;;
77457;SDS011;66541;49.346;8.648;2023-05-21T12:28:29;10.23;;;5.05;;
77457;SDS011;66541;49.346;8.648;2023-05-21T12:30:54;9.73;;;5.07;;
77457;SDS011;66541;49.346;8.648;2023-05-21T12:33:20;11.70;;;5.78;;
77457;SDS011;66541;49.346;8.648;2023-05-21T12:35:46;9.80;;;4.70;;
77457;SDS011;66541;49.346;8.648;2023-05-21T12:38:13;9.38;;;5.35;;
77457;SDS011;66541;49.346;8.648;2023-05-21T12:40:39;9.48;;;6.38;;
77457;SDS011;66541;49.346;8.648;2023-05-21T12:43:05;10.65;;;4.35;;
77457;SDS011;66541;49.346;8.648;2023-05-21T12:45:31;9.73;;;5.32;;
77457;SDS011;66541;49.346;8.648;2023-05-21T12:48:00;9.68;;;4.57;;
77457;SDS011;66541;49.346;8.648;2023-05-21T12:50:25;9.38;;;5.47;;
77457;SDS011;66541;49.346;8.648;2023-05-21T12:52:54;9.00;;;5.07;;
77457;SDS011;66541;49.346;8.648;2023-05-21T12:55:23;9.60;;;4.38;;
77457;SDS011;66541;49.346;8.648;2023-05-21T12:57:52;10.57;;;5.10;;
77457;SDS011;66541;49.346;8.648;2023-05-21T13:00:24;9.40;;;5.22;;
77457;SDS011;66541;49.346;8.648;2023-05-21T13:02:50;8.60;;;4.97;;
77457;SDS011;66541;49.346;8.648;2023-05-21T13:05:16;9.55;;;4.65;;
77457;SDS011;66541;49.346;8.648;2023-05-21T13:07:42;9.98;;;4.65;;
77457;SDS011;66541;49.346;8.648;2023-05-21T13:10:10;10.10;;;5.18;;
77457;SDS011;66541;49.346;8.648;2023-05-21T13:12:36;9.88;;;5.05;;
77457;SDS011;66541;49.346;8.648;2023-05-21T13:15:02;9.50;;;5.15;;
77457;SDS011;66541;49.346;8.648;2023-05-21T13:17:28;11.13;;;6.65;;
77457;SDS011;66541;49.346;8.648;2023-05-21T13:22:42;10.80;;;5.35;;
77457;SDS011;66541;49.346;8.648;2023-05-21T13:25:10;10.07;;;4.82;;
77457;SDS011;66541;49.346;8.648;2023-05-21T13:27:39;12.40;;;5.55;;
77457;SDS011;66541;49.346;8.648;2023-05-21T13:30:05;9.70;;;5.53;;
77457;SDS011;66541;49.346;8.648;2023-05-21T13:32:31;10.18;;;5.28;;
77457;SDS011;66541;49.346;8.648;2023-05-21T13:34:57;11.13;;;4.50;;
77457;SDS011;66541;49.346;8.648;2023-05-21T13:37:22;10.95;;;4.57;;
77457;SDS011;66541;49.346;8.648;2023-05-21T13:39:47;11.30;;;5.07;;
77457;SDS011;66541;49.346;8.648;2023-05-21T13:42:14;8.90;;;4.45;;
77457;SDS011;66541;49.346;8.648;2023-05-21T13:44:40;10.38;;;5.35;;
77457;SDS011;66541;49.346;8.648;2023-05-21T13:47:05;9.15;;;4.97;;
77457;SDS011;66541;49.346;8.648;2023-05-21T13:49:32;11.65;;;5.18;;
77457;SDS011;66541;49.346;8.648;2023-05-21T13:51:58;9.45;;;5.25;;
77457;SDS011;66541;49.346;8.648;2023-05-21T13:54:24;9.80;;;6.18;;
77457;SDS011;66541;49.346;8.648;2023-05-21T13:56:50;9.40;;;4.78;;
77457;SDS011;66541;49.346;8.648;2023-05-21T13:59:15;13.90;;;5.50;;
77457;SDS011;66541;49.346;8.648;2023-05-21T14:01:41;10.00;;;5.15;;
77457;SDS011;66541;49.346;8.648;2023-05-21T14:04:08;10.30;;;5.85;;
77457;SDS011;66541;49.346;8.648;2023-05-21T14:06:33;10.98;;;5.97;;
77457;SDS011;66541;49.346;8.648;2023-05-21T14:09:00;9.75;;;5.43;;
77457;SDS011;66541;49.346;8.648;2023-05-21T14:11:26;9.73;;;5.07;;
77457;SDS011;66541;49.346;8.648;2023-05-21T14:13:52;9.90;;;5.00;;
77457;SDS011;66541;49.346;8.648;2023-05-21T14:16:20;11.43;;;6.65;;
77457;SDS011;66541;49.346;8.648;2023-05-21T14:18:48;10.45;;;5.97;;
77457;SDS011;66541;49.346;8.648;2023-05-21T14:21:13;9.52;;;5.55;;
77457;SDS011;66541;49.346;8.648;2023-05-21T14:23:39;10.40;;;5.70;;
77457;SDS011;66541;49.346;8.648;2023-05-21T14:26:04;9.43;;;5.28;;
77457;SDS011;66541;49.346;8.648;2023-05-21T14:28:29;10.45;;;6.00;;
77457;SDS011;66541;49.346;8.648;2023-05-21T14:30:55;11.20;;;6.03;;
77457;SDS011;66541;49.346;8.648;2023-05-21T14:33:20;10.38;;;5.55;;
77457;SDS011;66541;49.346;8.648;2023-05-21T14:35:46;10.10;;;5.55;;
77457;SDS011;66541;49.346;8.648;2023-05-21T14:38:11;11.80;;;6.63;;
77457;SDS011;66541;49.346;8.648;2023-05-21T14:40:37;11.63;;;6.20;;
77457;SDS011;66541;49.346;8.648;2023-05-21T14:43:02;9.73;;;5.75;;
77457;SDS011;66541;49.346;8.648;2023-05-21T14:45:27;9.40;;;5.70;;
77457;SDS011;66541;49.346;8.648;2023-05-21T14:47:53;10.48;;;5.78;;
77457;SDS011;66541;49.346;8.648;2023-05-21T14:50:18;11.15;;;5.53;;
77457;SDS011;66541;49.346;8.648;2023-05-21T14:52:44;10.75;;;5.35;;
77457;SDS011;66541;49.346;8.648;2023-05-21T14:55:09;10.30;;;6.30;;
77457;SDS011;66541;49.346;8.648;2023-05-21T14:57:36;10.40;;;5.28;;
77457;SDS011;66541;49.346;8.648;2023-05-21T15:00:01;10.25;;;5.90;;
77457;SDS011;66541;49.346;8.648;2023-05-21T15:02:27;9.85;;;5.68;;